createdAt,value
2017-12-12T00:00:34.552Z,81.38
2017-12-12T00:01:34.538Z,81.2
2017-12-12T00:02:34.283Z,81.1
2017-12-12T00:03:34.297Z,81.29
2017-12-12T00:04:34.580Z,81.01
2017-12-12T00:05:34.591Z,81.01
2017-12-12T00:06:34.605Z,81.1
2017-12-12T00:07:34.360Z,81.01
2017-12-12T00:08:34.630Z,81.29
2017-12-12T00:09:34.661Z,81.2
2017-12-12T00:10:34.658Z,81.2
2017-12-12T00:11:34.670Z,81.29
2017-12-12T00:12:34.690Z,81.2
2017-12-12T00:13:34.702Z,81.38
2017-12-12T00:14:34.711Z,81.01
2017-12-12T00:15:34.732Z,81.29
2017-12-12T00:16:34.738Z,81.2
2017-12-12T00:17:34.485Z,81.38
2017-12-12T00:18:34.765Z,81.1
2017-12-12T00:19:34.776Z,81.29
2017-12-12T00:20:34.790Z,81.1
2017-12-12T00:21:34.800Z,81.29
2017-12-12T00:22:34.817Z,81.1
2017-12-12T00:23:34.831Z,80.91
2017-12-12T00:24:34.851Z,81.29
2017-12-12T00:25:34.856Z,81.2
2017-12-12T00:26:34.872Z,81.29
2017-12-12T00:27:34.884Z,81.29
2017-12-12T00:28:34.896Z,81.2
2017-12-12T00:29:34.645Z,81.2
2017-12-12T00:30:34.921Z,81.29
2017-12-12T00:31:34.667Z,81.1
2017-12-12T00:32:34.953Z,81.38
2017-12-12T00:33:34.963Z,81.38
2017-12-12T00:34:34.975Z,81.2
2017-12-12T00:35:34.989Z,81.1
2017-12-12T00:36:35.004Z,81.29
2017-12-12T00:37:35.012Z,81.1
2017-12-12T00:38:34.760Z,81.2
2017-12-12T00:39:35.041Z,81.2
2017-12-12T00:40:34.799Z,81.2
2017-12-12T00:41:35.066Z,81.2
2017-12-12T00:42:35.079Z,81.1
2017-12-12T00:43:35.098Z,81.1
2017-12-12T00:44:35.106Z,81.01
2017-12-12T00:45:34.854Z,81.1
2017-12-12T00:46:34.863Z,81.1
2017-12-12T00:47:35.147Z,81.01
2017-12-12T00:48:35.163Z,80.82
2017-12-12T00:49:35.178Z,81.1
2017-12-12T00:50:35.223Z,80.91
2017-12-12T00:51:35.199Z,81.1
2017-12-12T00:52:35.212Z,80.82
2017-12-12T00:53:34.961Z,80.91
2017-12-12T00:54:35.246Z,81.2
2017-12-12T00:55:35.252Z,80.72
2017-12-12T00:56:35.264Z,80.91
2017-12-12T00:57:35.279Z,80.82
2017-12-12T00:58:35.292Z,81.2
2017-12-12T00:59:35.305Z,81.2
2017-12-12T01:00:35.319Z,80.82
2017-12-12T01:01:35.330Z,80.72
2017-12-12T01:02:35.345Z,80.91
2017-12-12T01:03:35.355Z,80.82
2017-12-12T01:04:35.125Z,80.72
2017-12-12T01:05:35.117Z,80.82
2017-12-12T01:06:35.402Z,80.63
2017-12-12T01:07:35.416Z,81.01
2017-12-12T01:08:35.427Z,80.91
2017-12-12T01:09:35.494Z,80.82
2017-12-12T01:10:35.453Z,80.82
2017-12-12T01:11:35.462Z,80.82
2017-12-12T01:12:35.476Z,81.1
2017-12-12T01:13:35.493Z,80.82
2017-12-12T01:14:35.502Z,80.91
2017-12-12T01:15:35.516Z,80.91
2017-12-12T01:16:35.262Z,81.1
2017-12-12T01:17:35.547Z,80.82
2017-12-12T01:18:35.556Z,80.82
2017-12-12T01:19:35.567Z,80.72
2017-12-12T01:20:35.582Z,80.72
2017-12-12T01:21:35.594Z,80.82
2017-12-12T01:22:35.623Z,80.63
2017-12-12T01:23:35.629Z,80.91
2017-12-12T01:24:35.636Z,80.72
2017-12-12T01:25:35.381Z,80.63
2017-12-12T01:26:35.393Z,80.82
2017-12-12T01:27:35.674Z,80.82
2017-12-12T01:28:35.688Z,80.91
2017-12-12T01:29:35.708Z,80.82
2017-12-12T01:30:35.704Z,80.63
2017-12-12T01:31:35.726Z,80.82
2017-12-12T01:32:35.472Z,81.01
2017-12-12T01:33:35.748Z,80.91
2017-12-12T01:34:35.763Z,80.82
2017-12-12T01:35:35.771Z,80.24
2017-12-12T01:36:35.788Z,80.63
2017-12-12T01:37:35.534Z,80.63
2017-12-12T01:38:35.817Z,80.72
2017-12-12T01:39:35.823Z,80.72
2017-12-12T01:40:35.838Z,80.63
2017-12-12T01:41:35.856Z,80.63
2017-12-12T01:42:35.599Z,80.72
2017-12-12T01:43:35.877Z,80.53
2017-12-12T01:44:35.891Z,80.72
2017-12-12T01:45:35.914Z,80.72
2017-12-12T01:46:35.922Z,80.44
2017-12-12T01:47:35.664Z,80.34
2017-12-12T01:48:35.947Z,80.44
2017-12-12T01:49:35.960Z,80.72
2017-12-12T01:50:35.973Z,80.34
2017-12-12T01:51:35.983Z,80.63
2017-12-12T01:52:35.998Z,80.34
2017-12-12T01:53:36.015Z,80.34
2017-12-12T01:54:36.025Z,80.53
2017-12-12T01:55:36.037Z,80.53
2017-12-12T01:56:36.051Z,80.34
2017-12-12T01:57:36.061Z,80.44
2017-12-12T01:58:36.078Z,80.53
2017-12-12T01:59:36.094Z,80.53
2017-12-12T02:00:36.106Z,80.24
2017-12-12T02:01:35.853Z,80.34
2017-12-12T02:02:35.869Z,80.53
2017-12-12T02:03:36.141Z,80.05
2017-12-12T02:04:36.156Z,80.24
2017-12-12T02:05:35.907Z,80.24
2017-12-12T02:06:36.187Z,80.44
2017-12-12T02:07:36.197Z,80.15
2017-12-12T02:08:36.208Z,79.77
2017-12-12T02:09:36.222Z,79.86
2017-12-12T02:10:35.967Z,79.96
2017-12-12T02:11:36.247Z,79.68
2017-12-12T02:12:36.260Z,80.05
2017-12-12T02:13:36.272Z,80.15
2017-12-12T02:14:36.289Z,79.77
2017-12-12T02:15:36.301Z,79.68
2017-12-12T02:16:36.313Z,79.77
2017-12-12T02:17:36.385Z,80.72
2017-12-12T02:18:36.365Z,79.77
2017-12-12T02:19:36.091Z,79.68
2017-12-12T02:20:36.097Z,79.68
2017-12-12T02:21:36.377Z,79.77
2017-12-12T02:22:36.395Z,79.86
2017-12-12T02:23:36.405Z,79.77
2017-12-12T02:24:36.417Z,80.34
2017-12-12T02:25:36.432Z,80.05
2017-12-12T02:26:36.447Z,79.96
2017-12-12T02:27:36.457Z,80.15
2017-12-12T02:28:36.472Z,80.05
2017-12-12T02:29:36.535Z,80.15
2017-12-12T02:30:36.232Z,80.15
2017-12-12T02:31:36.511Z,80.24
2017-12-12T02:32:36.538Z,80.24
2017-12-12T02:33:36.551Z,79.77
2017-12-12T02:34:36.555Z,79.58
2017-12-12T02:35:36.564Z,80.05
2017-12-12T02:36:36.312Z,79.77
2017-12-12T02:37:36.589Z,80.15
2017-12-12T02:38:36.601Z,80.15
2017-12-12T02:39:36.623Z,80.15
2017-12-12T02:40:36.627Z,80.05
2017-12-12T02:41:36.649Z,79.77
2017-12-12T02:42:36.389Z,80.34
2017-12-12T02:43:36.669Z,80.15
2017-12-12T02:44:36.687Z,80.15
2017-12-12T02:45:36.434Z,79.86
2017-12-12T02:46:36.443Z,80.05
2017-12-12T02:47:36.456Z,79.49
2017-12-12T02:48:36.732Z,79.68
2017-12-12T02:49:36.831Z,79.49
2017-12-12T02:50:36.763Z,79.39
2017-12-12T02:51:36.778Z,79.49
2017-12-12T02:52:36.785Z,79.49
2017-12-12T02:53:36.535Z,79.86
2017-12-12T02:54:36.817Z,79.58
2017-12-12T02:55:36.828Z,79.58
2017-12-12T02:56:36.845Z,79.49
2017-12-12T02:57:36.850Z,79.68
2017-12-12T02:58:36.599Z,79.68
2017-12-12T02:59:36.881Z,79.68
2017-12-12T03:00:36.625Z,79.68
2017-12-12T03:01:36.903Z,79.77
2017-12-12T03:02:36.651Z,79.68
2017-12-12T03:03:36.933Z,79.68
2017-12-12T03:04:36.681Z,79.68
2017-12-12T03:05:36.959Z,79.49
2017-12-12T03:06:36.969Z,79.58
2017-12-12T03:07:36.990Z,79.58
2017-12-12T03:08:36.999Z,79.39
2017-12-12T03:09:37.012Z,79.49
2017-12-12T03:10:37.025Z,79.68
2017-12-12T03:11:37.032Z,79.2
2017-12-12T03:12:36.794Z,79.68
2017-12-12T03:13:36.799Z,79.68
2017-12-12T03:14:37.076Z,79.58
2017-12-12T03:15:37.090Z,78.82
2017-12-12T03:16:37.103Z,78.82
2017-12-12T03:17:37.116Z,78.91
2017-12-12T03:18:36.862Z,78.91
2017-12-12T03:19:37.143Z,79.68
2017-12-12T03:20:36.890Z,79.11
2017-12-12T03:21:37.171Z,79.01
2017-12-12T03:22:37.180Z,79.01
2017-12-12T03:23:36.931Z,78.91
2017-12-12T03:24:37.209Z,78.82
2017-12-12T03:25:37.223Z,78.82
2017-12-12T03:26:36.966Z,78.63
2017-12-12T03:27:36.980Z,78.82
2017-12-12T03:28:37.265Z,78.63
2017-12-12T03:29:37.007Z,78.72
2017-12-12T03:30:37.293Z,78.63
2017-12-12T03:31:37.300Z,79.3
2017-12-12T03:32:37.312Z,79.11
2017-12-12T03:33:37.060Z,79.01
2017-12-12T03:34:37.074Z,78.72
2017-12-12T03:35:37.354Z,78.82
2017-12-12T03:36:37.364Z,78.53
2017-12-12T03:37:37.376Z,79.2
2017-12-12T03:38:37.394Z,79.01
2017-12-12T03:39:37.138Z,78.5
2017-12-12T03:40:37.417Z,78.72
2017-12-12T03:41:37.429Z,78.53
2017-12-12T03:42:37.449Z,78.82
2017-12-12T03:43:37.456Z,78.63
2017-12-12T03:44:37.476Z,78.44
2017-12-12T03:45:37.222Z,78.91
2017-12-12T03:46:37.500Z,78.34
2017-12-12T03:47:37.510Z,78.63
2017-12-12T03:48:37.256Z,78.63
2017-12-12T03:49:37.537Z,78.63
2017-12-12T03:50:37.562Z,78.59
2017-12-12T03:51:37.562Z,78.72
2017-12-12T03:52:37.309Z,78.53
2017-12-12T03:53:37.322Z,78.72
2017-12-12T03:54:37.603Z,78.72
2017-12-12T03:55:37.614Z,78.72
2017-12-12T03:56:37.629Z,78.4
2017-12-12T03:57:37.648Z,78.59
2017-12-12T03:58:37.655Z,78.34
2017-12-12T03:59:37.672Z,78.82
2017-12-12T04:00:37.680Z,78.25
2017-12-12T04:01:37.691Z,78.44
2017-12-12T04:02:37.704Z,78.44
2017-12-12T04:03:37.718Z,78.3
2017-12-12T04:04:37.738Z,78.25
2017-12-12T04:05:37.743Z,78.5
2017-12-12T04:06:37.758Z,78.44
2017-12-12T04:07:37.776Z,78.06
2017-12-12T04:08:37.784Z,78.34
2017-12-12T04:09:37.795Z,77.58
2017-12-12T04:10:37.810Z,77.87
2017-12-12T04:11:37.824Z,78.06
2017-12-12T04:12:37.837Z,78.06
2017-12-12T04:13:37.872Z,78.06
2017-12-12T04:14:37.860Z,77.87
2017-12-12T04:15:37.874Z,77.3
2017-12-12T04:16:37.892Z,77.39
2017-12-12T04:17:37.922Z,77.11
2017-12-12T04:18:37.649Z,77.3
2017-12-12T04:19:37.928Z,77.39
2017-12-12T04:20:37.942Z,77.17
2017-12-12T04:21:37.952Z,76.92
2017-12-12T04:22:37.703Z,76.78
2017-12-12T04:23:38.015Z,77.2
2017-12-12T04:24:37.999Z,77.39
2017-12-12T04:25:38.058Z,77.2
2017-12-12T04:26:38.018Z,77.3
2017-12-12T04:27:38.034Z,76.82
2017-12-12T04:28:38.082Z,76.63
2017-12-12T04:29:37.792Z,76.78
2017-12-12T04:30:38.078Z,76.69
2017-12-12T04:31:38.088Z,76.69
2017-12-12T04:32:38.110Z,76.78
2017-12-12T04:33:38.131Z,76.73
2017-12-12T04:34:38.124Z,76.97
2017-12-12T04:35:38.153Z,76.69
2017-12-12T04:36:37.886Z,76.88
2017-12-12T04:37:38.165Z,76.63
2017-12-12T04:38:38.180Z,76.63
2017-12-12T04:39:38.189Z,76.4
2017-12-12T04:40:37.935Z,76.16
2017-12-12T04:41:38.216Z,76.5
2017-12-12T04:42:38.226Z,76.4
2017-12-12T04:43:38.244Z,76.69
2017-12-12T04:44:38.257Z,77.11
2017-12-12T04:45:38.003Z,76.59
2017-12-12T04:46:38.281Z,76.78
2017-12-12T04:47:38.291Z,76.73
2017-12-12T04:48:38.308Z,76.63
2017-12-12T04:49:38.323Z,76.4
2017-12-12T04:50:38.331Z,77.17
2017-12-12T04:51:38.353Z,77.2
2017-12-12T04:52:38.093Z,76.88
2017-12-12T04:53:38.386Z,77.3
2017-12-12T04:54:38.387Z,76.73
2017-12-12T04:55:38.468Z,76.73
2017-12-12T04:56:38.410Z,76.63
2017-12-12T04:57:38.157Z,75.96
2017-12-12T04:58:38.170Z,75.78
2017-12-12T04:59:38.185Z,75.84
2017-12-12T05:00:38.485Z,75.68
2017-12-12T05:01:38.474Z,76.06
2017-12-12T05:02:38.498Z,75.96
2017-12-12T05:03:38.502Z,75.93
2017-12-12T05:04:38.518Z,75.87
2017-12-12T05:05:38.526Z,75.49
2017-12-12T05:06:38.544Z,75.45
2017-12-12T05:07:38.291Z,75.78
2017-12-12T05:08:38.579Z,75.55
2017-12-12T05:09:38.580Z,75.74
2017-12-12T05:10:38.592Z,75.74
2017-12-12T05:11:38.342Z,75.74
2017-12-12T05:12:38.352Z,75.74
2017-12-12T05:13:38.632Z,75.78
2017-12-12T05:14:38.454Z,75.74
2017-12-12T05:15:38.656Z,75.74
2017-12-12T05:16:38.672Z,75.68
2017-12-12T05:17:38.687Z,75.59
2017-12-12T05:18:38.746Z,75.68
2017-12-12T05:19:38.711Z,75.59
2017-12-12T05:20:38.723Z,75.68
2017-12-12T05:21:38.738Z,75.64
2017-12-12T05:22:38.745Z,76.21
2017-12-12T05:23:38.761Z,75.59
2017-12-12T05:24:38.775Z,75.45
2017-12-12T05:25:38.785Z,75.59
2017-12-12T05:26:38.801Z,75.49
2017-12-12T05:27:38.812Z,75.64
2017-12-12T05:28:38.560Z,75.93
2017-12-12T05:29:38.574Z,75.59
2017-12-12T05:30:38.852Z,75.84
2017-12-12T05:31:38.867Z,75.87
2017-12-12T05:32:38.881Z,75.07
2017-12-12T05:33:38.894Z,75.17
2017-12-12T05:34:38.902Z,75.17
2017-12-12T05:35:38.921Z,75.07
2017-12-12T05:36:38.933Z,75.11
2017-12-12T05:37:38.678Z,75.11
2017-12-12T05:38:38.956Z,75.55
2017-12-12T05:39:38.967Z,75.55
2017-12-12T05:40:38.987Z,75.45
2017-12-12T05:41:38.730Z,75.26
2017-12-12T05:42:39.014Z,75.36
2017-12-12T05:43:39.030Z,75.26
2017-12-12T05:44:39.042Z,75.26
2017-12-12T05:45:38.782Z,75.26
2017-12-12T05:46:39.058Z,75.36
2017-12-12T05:47:39.073Z,75.17
2017-12-12T05:48:39.090Z,74.41
2017-12-12T05:49:39.098Z,74.6
2017-12-12T05:50:39.114Z,74.69
2017-12-12T05:51:38.865Z,74.98
2017-12-12T05:52:38.878Z,74.41
2017-12-12T05:53:39.150Z,74.98
2017-12-12T05:54:39.170Z,74.51
2017-12-12T05:55:39.185Z,74.6
2017-12-12T05:56:39.191Z,74.31
2017-12-12T05:57:39.203Z,73.93
2017-12-12T05:58:38.952Z,73.55
2017-12-12T05:59:38.965Z,73.55
2017-12-12T06:00:39.244Z,73.93
2017-12-12T06:01:39.255Z,73.65
2017-12-12T06:02:39.001Z,73.74
2017-12-12T06:03:39.284Z,73.84
2017-12-12T06:04:39.295Z,73.55
2017-12-12T06:05:39.305Z,72.99
2017-12-12T06:06:39.053Z,73.18
2017-12-12T06:07:39.392Z,73.65
2017-12-12T06:08:39.343Z,72.79
2017-12-12T06:09:39.361Z,73.36
2017-12-12T06:10:39.369Z,73.18
2017-12-12T06:11:39.386Z,72.89
2017-12-12T06:12:39.395Z,72.7
2017-12-12T06:13:39.410Z,73.65
2017-12-12T06:14:39.423Z,72.99
2017-12-12T06:15:39.434Z,73.74
2017-12-12T06:16:39.184Z,73.55
2017-12-12T06:17:39.461Z,73.55
2017-12-12T06:18:39.474Z,73.36
2017-12-12T06:19:39.488Z,74.12
2017-12-12T06:20:39.524Z,74.03
2017-12-12T06:21:39.512Z,74.03
2017-12-12T06:22:39.524Z,74.12
2017-12-12T06:23:39.273Z,73.27
2017-12-12T06:24:39.293Z,73.65
2017-12-12T06:25:39.569Z,73.55
2017-12-12T06:26:39.577Z,72.99
2017-12-12T06:27:39.326Z,73.18
2017-12-12T06:28:39.619Z,73.18
2017-12-12T06:29:39.617Z,73.27
2017-12-12T06:30:39.628Z,73.27
2017-12-12T06:31:39.647Z,72.89
2017-12-12T06:32:39.662Z,72.6
2017-12-12T06:33:39.668Z,72.89
2017-12-12T06:34:39.682Z,72.7
2017-12-12T06:35:39.700Z,72.7
2017-12-12T06:36:39.707Z,72.7
2017-12-12T06:37:39.725Z,72.32
2017-12-12T06:38:39.732Z,72.32
2017-12-12T06:39:39.748Z,71.94
2017-12-12T06:40:39.758Z,71.94
2017-12-12T06:41:39.770Z,72.03
2017-12-12T06:42:39.790Z,72.22
2017-12-12T06:43:39.532Z,72.03
2017-12-12T06:44:39.810Z,71.84
2017-12-12T06:45:39.558Z,71.66
2017-12-12T06:46:39.847Z,71.75
2017-12-12T06:47:39.858Z,71.66
2017-12-12T06:48:39.861Z,71.84
2017-12-12T06:49:39.881Z,71.84
2017-12-12T06:50:39.885Z,72.32
2017-12-12T06:51:39.901Z,72.03
2017-12-12T06:52:39.913Z,71.94
2017-12-12T06:53:39.931Z,72.22
2017-12-12T06:54:39.939Z,72.32
2017-12-12T06:55:39.952Z,72.51
2017-12-12T06:56:39.968Z,72.6
2017-12-12T06:57:39.976Z,72.51
2017-12-12T06:58:40.006Z,72.99
2017-12-12T06:59:40.008Z,72.89
2017-12-12T07:00:39.750Z,72.7
2017-12-12T07:01:40.032Z,72.79
2017-12-12T07:02:40.045Z,73.08
2017-12-12T07:03:40.056Z,73.08
2017-12-12T07:04:39.805Z,73.08
2017-12-12T07:05:40.080Z,73.18
2017-12-12T07:06:40.097Z,72.7
2017-12-12T07:07:40.105Z,72.79
2017-12-12T07:08:40.121Z,72.51
2017-12-12T07:09:40.132Z,72.22
2017-12-12T07:10:40.149Z,72.7
2017-12-12T07:11:40.184Z,72.13
2017-12-12T07:12:40.178Z,72.03
2017-12-12T07:13:39.918Z,72.03
2017-12-12T07:14:40.193Z,71.46
2017-12-12T07:15:40.212Z,70.99
2017-12-12T07:16:40.222Z,70.61
2017-12-12T07:17:40.231Z,70.61
2017-12-12T07:18:40.248Z,70.51
2017-12-12T07:19:39.997Z,70.7
2017-12-12T07:20:40.320Z,70.42
2017-12-12T07:21:40.290Z,70.89
2017-12-12T07:22:40.325Z,70.23
2017-12-12T07:23:40.316Z,70.23
2017-12-12T07:24:40.325Z,70.04
2017-12-12T07:25:40.337Z,70.29
2017-12-12T07:26:40.086Z,68.99
2017-12-12T07:27:40.366Z,69.09
2017-12-12T07:28:40.373Z,68.48
2017-12-12T07:29:40.389Z,68.77
2017-12-12T07:30:40.403Z,68.77
2017-12-12T07:31:40.415Z,69.24
2017-12-12T07:32:40.430Z,68.58
2017-12-12T07:33:40.442Z,68.19
2017-12-12T07:34:40.450Z,68.67
2017-12-12T07:35:40.469Z,68.86
2017-12-12T07:36:40.477Z,68.96
2017-12-12T07:37:40.546Z,69.81
2017-12-12T07:38:40.235Z,70.29
2017-12-12T07:39:40.516Z,70.38
2017-12-12T07:40:40.527Z,70.67
2017-12-12T07:41:40.543Z,71.04
2017-12-12T07:42:40.555Z,70.95
2017-12-12T07:43:40.569Z,70.67
2017-12-12T07:44:40.576Z,70.48
2017-12-12T07:45:40.588Z,70.19
2017-12-12T07:46:40.336Z,69.81
2017-12-12T07:47:40.367Z,69.53
2017-12-12T07:48:40.629Z,69.05
2017-12-12T07:49:40.399Z,69.15
2017-12-12T07:50:40.660Z,69.43
2017-12-12T07:51:40.665Z,70.29
2017-12-12T07:52:40.679Z,70.04
2017-12-12T07:53:40.697Z,69.71
2017-12-12T07:54:40.438Z,70.04
2017-12-12T07:55:40.497Z,70.19
2017-12-12T07:56:40.738Z,70
2017-12-12T07:57:40.741Z,69.81
2017-12-12T07:58:40.772Z,69.43
2017-12-12T07:59:40.780Z,69.71
2017-12-12T08:00:40.513Z,69.24
2017-12-12T08:01:40.795Z,69.15
2017-12-12T08:02:40.804Z,69.15
2017-12-12T08:03:40.623Z,69.34
2017-12-12T08:04:40.832Z,69.43
2017-12-12T08:05:40.869Z,69.71
2017-12-12T08:06:40.860Z,69.34
2017-12-12T08:07:40.870Z,69.34
2017-12-12T08:08:40.884Z,69.24
2017-12-12T08:09:40.897Z,70
2017-12-12T08:10:40.904Z,70.57
2017-12-12T08:11:40.920Z,70.19
2017-12-12T08:12:40.932Z,69.91
2017-12-12T08:13:40.941Z,69.81
2017-12-12T08:14:40.958Z,69.94
2017-12-12T08:15:40.969Z,69.15
2017-12-12T08:16:40.713Z,68.86
2017-12-12T08:17:40.993Z,69.27
2017-12-12T08:18:41.007Z,68.39
2017-12-12T08:19:41.072Z,67.91
2017-12-12T08:20:41.031Z,67.63
2017-12-12T08:21:41.043Z,67.25
2017-12-12T08:22:41.053Z,67.25
2017-12-12T08:23:41.074Z,67.63
2017-12-12T08:24:41.083Z,67.53
2017-12-12T08:25:41.094Z,67.06
2017-12-12T08:26:40.840Z,67.15
2017-12-12T08:27:41.122Z,67.53
2017-12-12T08:28:40.866Z,67.25
2017-12-12T08:29:40.876Z,67.34
2017-12-12T08:30:40.890Z,67.34
2017-12-12T08:31:41.169Z,67.53
2017-12-12T08:32:41.199Z,68.1
2017-12-12T08:33:40.927Z,68.29
2017-12-12T08:34:41.206Z,67.53
2017-12-12T08:35:40.959Z,67.34
2017-12-12T08:36:41.232Z,67.44
2017-12-12T08:37:41.241Z,67.53
2017-12-12T08:38:40.990Z,67.53
2017-12-12T08:39:41.267Z,67.72
2017-12-12T08:40:41.280Z,67.06
2017-12-12T08:41:41.291Z,66.77
2017-12-12T08:42:41.305Z,66.58
2017-12-12T08:43:41.316Z,66.77
2017-12-12T08:44:41.331Z,66.49
2017-12-12T08:45:41.349Z,66.49
2017-12-12T08:46:41.356Z,66.67
2017-12-12T08:47:41.368Z,66.77
2017-12-12T08:48:41.115Z,67.44
2017-12-12T08:49:41.387Z,67.25
2017-12-12T08:50:41.403Z,67.15
2017-12-12T08:51:41.415Z,67.53
2017-12-12T08:52:41.425Z,67.44
2017-12-12T08:53:41.440Z,67.63
2017-12-12T08:54:41.450Z,67.53
2017-12-12T08:55:41.201Z,67.25
2017-12-12T08:56:41.474Z,67.44
2017-12-12T08:57:41.489Z,67.44
2017-12-12T08:58:41.235Z,67.63
2017-12-12T08:59:41.512Z,67.15
2017-12-12T09:00:41.526Z,67.63
2017-12-12T09:01:41.539Z,67.25
2017-12-12T09:02:41.284Z,66.77
2017-12-12T09:03:41.569Z,66.77
2017-12-12T09:04:41.578Z,67.15
2017-12-12T09:05:41.589Z,66.96
2017-12-12T09:06:41.597Z,66.87
2017-12-12T09:07:41.611Z,67.06
2017-12-12T09:08:41.364Z,66.96
2017-12-12T09:09:41.635Z,67.06
2017-12-12T09:10:41.646Z,67.53
2017-12-12T09:11:41.661Z,67.34
2017-12-12T09:12:41.672Z,67.25
2017-12-12T09:13:41.685Z,67.44
2017-12-12T09:14:41.431Z,67.34
2017-12-12T09:15:41.444Z,67.63
2017-12-12T09:16:41.719Z,67.63
2017-12-12T09:17:41.731Z,67.53
2017-12-12T09:18:41.745Z,66.96
2017-12-12T09:19:41.491Z,67.06
2017-12-12T09:20:41.770Z,67.06
2017-12-12T09:21:41.784Z,66.96
2017-12-12T09:22:41.793Z,66.96
2017-12-12T09:23:41.812Z,67.44
2017-12-12T09:24:41.553Z,66.96
2017-12-12T09:25:41.832Z,67.25
2017-12-12T09:26:41.845Z,67.44
2017-12-12T09:27:41.852Z,67.53
2017-12-12T09:28:41.871Z,67.63
2017-12-12T09:29:41.878Z,67.44
2017-12-12T09:30:41.898Z,66.87
2017-12-12T09:31:41.907Z,66.87
2017-12-12T09:32:41.653Z,66.39
2017-12-12T09:33:41.664Z,66.58
2017-12-12T09:34:41.943Z,66.67
2017-12-12T09:35:41.960Z,66.87
2017-12-12T09:36:41.969Z,67.02
2017-12-12T09:37:41.723Z,66.87
2017-12-12T09:38:41.740Z,66.64
2017-12-12T09:39:42.007Z,66.27
2017-12-12T09:40:42.014Z,66.55
2017-12-12T09:41:42.025Z,66.77
2017-12-12T09:42:42.038Z,66.67
2017-12-12T09:43:42.051Z,67.44
2017-12-12T09:44:42.065Z,67.15
2017-12-12T09:45:42.082Z,67.53
2017-12-12T09:46:42.089Z,67.5
2017-12-12T09:47:42.101Z,67.25
2017-12-12T09:48:42.113Z,67.34
2017-12-12T09:49:41.857Z,67.15
2017-12-12T09:50:42.141Z,67.34
2017-12-12T09:51:42.148Z,67.25
2017-12-12T09:52:42.166Z,66.96
2017-12-12T09:53:42.172Z,66.58
2017-12-12T09:54:42.185Z,66.87
2017-12-12T09:55:42.197Z,66.77
2017-12-12T09:56:41.947Z,66.49
2017-12-12T09:57:42.220Z,66.67
2017-12-12T09:58:42.233Z,66.96
2017-12-12T09:59:42.245Z,66.87
2017-12-12T10:00:41.994Z,66.96
2017-12-12T10:01:42.273Z,66.49
2017-12-12T10:02:42.282Z,66.87
2017-12-12T10:03:42.292Z,66.58
2017-12-12T10:04:42.305Z,67.15
2017-12-12T10:05:42.317Z,67.15
2017-12-12T10:06:42.330Z,66.87
2017-12-12T10:07:42.343Z,66.67
2017-12-12T10:08:42.354Z,66.67
2017-12-12T10:09:42.362Z,66.67
2017-12-12T10:10:42.121Z,66.77
2017-12-12T10:11:42.393Z,66.77
2017-12-12T10:12:42.404Z,66.39
2017-12-12T10:13:42.418Z,66.39
2017-12-12T10:14:42.159Z,66.3
2017-12-12T10:15:42.171Z,66.3
2017-12-12T10:16:42.183Z,66.2
2017-12-12T10:17:42.198Z,66.49
2017-12-12T10:18:42.480Z,66.67
2017-12-12T10:19:42.484Z,66.96
2017-12-12T10:20:42.511Z,66.96
2017-12-12T10:21:42.511Z,66.49
2017-12-12T10:22:42.522Z,66.58
2017-12-12T10:23:42.598Z,66.39
2017-12-12T10:24:42.544Z,66.49
2017-12-12T10:25:42.296Z,66.49
2017-12-12T10:26:42.580Z,65.92
2017-12-12T10:27:42.581Z,65.44
2017-12-12T10:28:42.595Z,65.63
2017-12-12T10:29:42.608Z,64.97
2017-12-12T10:30:42.629Z,65.35
2017-12-12T10:31:42.632Z,65.06
2017-12-12T10:32:42.643Z,65.25
2017-12-12T10:33:42.661Z,65.63
2017-12-12T10:34:42.401Z,65.54
2017-12-12T10:35:42.739Z,65.54
2017-12-12T10:36:42.429Z,65.16
2017-12-12T10:37:42.702Z,65.25
2017-12-12T10:38:42.717Z,65.25
2017-12-12T10:39:42.733Z,65.25
2017-12-12T10:40:42.743Z,65.35
2017-12-12T10:41:42.755Z,65.54
2017-12-12T10:42:42.766Z,65.25
2017-12-12T10:43:42.514Z,65.06
2017-12-12T10:44:42.792Z,65.16
2017-12-12T10:45:42.535Z,65.25
2017-12-12T10:46:42.818Z,65.82
2017-12-12T10:47:42.829Z,65.25
2017-12-12T10:48:42.840Z,65.25
2017-12-12T10:49:42.850Z,64.97
2017-12-12T10:50:42.861Z,64.97
2017-12-12T10:51:42.876Z,65.25
2017-12-12T10:52:42.887Z,65.06
2017-12-12T10:53:42.635Z,65.54
2017-12-12T10:54:42.912Z,64.97
2017-12-12T10:55:42.656Z,64.78
2017-12-12T10:56:42.935Z,64.78
2017-12-12T10:57:42.951Z,65.16
2017-12-12T10:58:42.958Z,64.49
2017-12-12T10:59:42.971Z,64.78
2017-12-12T11:00:42.717Z,65.25
2017-12-12T11:01:42.730Z,65.16
2017-12-12T11:02:43.016Z,65.16
2017-12-12T11:03:43.025Z,65.06
2017-12-12T11:04:43.035Z,65.16
2017-12-12T11:05:42.782Z,65.35
2017-12-12T11:06:43.058Z,65.25
2017-12-12T11:07:43.074Z,64.78
2017-12-12T11:08:42.816Z,65.06
2017-12-12T11:09:42.834Z,64.59
2017-12-12T11:10:43.106Z,64.87
2017-12-12T11:11:43.116Z,65.44
2017-12-12T11:12:43.134Z,64.97
2017-12-12T11:13:43.143Z,65.25
2017-12-12T11:14:43.158Z,64.21
2017-12-12T11:15:42.906Z,64.11
2017-12-12T11:16:43.188Z,63.92
2017-12-12T11:17:43.193Z,63.35
2017-12-12T11:18:43.206Z,63.26
2017-12-12T11:19:43.220Z,63.83
2017-12-12T11:20:43.232Z,64.02
2017-12-12T11:21:43.248Z,63.92
2017-12-12T11:22:43.253Z,63.57
2017-12-12T11:23:43.007Z,63.35
2017-12-12T11:24:43.282Z,63.35
2017-12-12T11:25:43.290Z,63.73
2017-12-12T11:26:43.306Z,63.39
2017-12-12T11:27:43.320Z,63.39
2017-12-12T11:28:43.330Z,63.39
2017-12-12T11:29:43.341Z,63.48
2017-12-12T11:30:43.352Z,63.29
2017-12-12T11:31:43.367Z,63.29
2017-12-12T11:32:43.380Z,63.76
2017-12-12T11:33:43.391Z,63.64
2017-12-12T11:34:43.136Z,63.48
2017-12-12T11:35:43.414Z,63.1
2017-12-12T11:36:43.427Z,63.45
2017-12-12T11:37:43.482Z,63.67
2017-12-12T11:38:43.185Z,63.29
2017-12-12T11:39:43.464Z,63.64
2017-12-12T11:40:43.480Z,63.26
2017-12-12T11:41:43.492Z,63.26
2017-12-12T11:42:43.500Z,63.35
2017-12-12T11:43:43.560Z,63.64
2017-12-12T11:44:43.526Z,63.1
2017-12-12T11:45:43.542Z,62.69
2017-12-12T11:46:43.549Z,62.88
2017-12-12T11:47:43.565Z,62.59
2017-12-12T11:48:43.583Z,62.97
2017-12-12T11:49:43.593Z,63.2
2017-12-12T11:50:43.597Z,63.57
2017-12-12T11:51:43.612Z,63.2
2017-12-12T11:52:43.622Z,62.43
2017-12-12T11:53:43.639Z,62.53
2017-12-12T11:54:43.655Z,62.4
2017-12-12T11:55:43.661Z,61.96
2017-12-12T11:56:43.673Z,61.83
2017-12-12T11:57:43.685Z,61.87
2017-12-12T11:58:43.702Z,61.55
2017-12-12T11:59:43.712Z,61.68
2017-12-12T12:00:43.724Z,62.43
2017-12-12T12:01:43.469Z,62.4
2017-12-12T12:02:43.747Z,62.43
2017-12-12T12:03:43.767Z,61.96
2017-12-12T12:04:43.773Z,62.12
2017-12-12T12:05:43.784Z,62.4
2017-12-12T12:06:43.799Z,62.31
2017-12-12T12:07:43.813Z,62.43
2017-12-12T12:08:43.556Z,62.59
2017-12-12T12:09:43.570Z,62.21
2017-12-12T12:10:43.854Z,62.12
2017-12-12T12:11:43.858Z,62.4
2017-12-12T12:12:43.875Z,62.4
2017-12-12T12:13:43.618Z,62.5
2017-12-12T12:14:43.906Z,62.91
2017-12-12T12:15:43.910Z,62.69
2017-12-12T12:16:43.919Z,62.12
2017-12-12T12:17:43.935Z,62.4
2017-12-12T12:18:43.949Z,62.59
2017-12-12T12:19:43.969Z,62.88
2017-12-12T12:20:43.972Z,63.17
2017-12-12T12:21:43.721Z,62.88
2017-12-12T12:22:43.995Z,63.07
2017-12-12T12:23:44.012Z,63.17
2017-12-12T12:24:44.020Z,62.97
2017-12-12T12:25:44.036Z,62.5
2017-12-12T12:26:44.047Z,62.5
2017-12-12T12:27:44.056Z,62.21
2017-12-12T12:28:43.801Z,62.31
2017-12-12T12:29:44.082Z,62.12
2017-12-12T12:30:44.100Z,62.21
2017-12-12T12:31:43.890Z,61.83
2017-12-12T12:32:44.121Z,62.31
2017-12-12T12:33:44.136Z,62.4
2017-12-12T12:34:43.876Z,62.5
2017-12-12T12:35:44.154Z,62.4
2017-12-12T12:36:43.903Z,62.4
2017-12-12T12:37:44.182Z,62.59
2017-12-12T12:38:44.195Z,62.4
2017-12-12T12:39:44.207Z,62.5
2017-12-12T12:40:44.219Z,62.21
2017-12-12T12:41:44.231Z,62.4
2017-12-12T12:42:44.242Z,62.4
2017-12-12T12:43:44.255Z,62.4
2017-12-12T12:44:44.003Z,61.83
2017-12-12T12:45:44.280Z,61.83
2017-12-12T12:46:44.388Z,62.4
2017-12-12T12:47:44.305Z,62.5
2017-12-12T12:48:44.320Z,61.45
2017-12-12T12:49:44.331Z,61.83
2017-12-12T12:50:44.345Z,61.74
2017-12-12T12:51:44.087Z,62.31
2017-12-12T12:52:44.367Z,62.31
2017-12-12T12:53:44.377Z,61.36
2017-12-12T12:54:44.391Z,61.17
2017-12-12T12:55:44.408Z,61.17